KSZT

Sandpoint Airport

Sandpoint, Idaho, USA
METAR KSZT 200055Z AUTO 19004KT 10SM SCT026 BKN034 OVC043 02/00 A2991 RMK AO2
Observed Flight Rules
Jan-20 @ 00:55 UTC (24 minutes ago) Visual Flight Rules
Wind Visibility Clouds
190° at 4 knots 10 miles
  • Scattered at 2,600' AGL
  • Broken at 3,400' AGL
  • Overcast at 4,300' AGL
Temperatures Readings
Current 2°C / 36°F
Dewpoint 0°C / 32°F
Humidity 87%
Altimeter 29.91" Hg
Pressure 1013 hPa
Elevation 648
METAR KSZT 200055Z AUTO 19004KT 10SM SCT026 BKN034 OVC043 02/00 A2991 RMK AO2
Observed Flight Rules
Jan-20 @ 00:55 UTC
(24 minutes ago)
VFR
Wind Visibility
190° at 4 knots 10 miles
Clouds
  • Scattered at 2,600' AGL
  • Broken at 3,400' AGL
  • Overcast at 4,300' AGL
Temperature Dewpoint
2°C / 36°F 0°C / 32°F
Humidity Altimeter Pressure
87% 29.91" Hg 1013 hPa